createdAt,value
2023-05-25T00:01:05.068Z,14.99
2023-05-25T00:03:32.629Z,14.91
2023-05-25T00:06:03.566Z,14.84
2023-05-25T00:08:30.745Z,14.93
2023-05-25T00:10:57.740Z,14.69
2023-05-25T00:13:24.850Z,14.68
2023-05-25T00:15:51.978Z,14.84
2023-05-25T00:18:19.100Z,15.06
2023-05-25T00:20:47.644Z,15.34
2023-05-25T00:23:15.017Z,14.99
2023-05-25T00:25:42.798Z,15.00
2023-05-25T00:28:11.682Z,14.99
2023-05-25T00:30:38.998Z,14.68
2023-05-25T00:33:06.629Z,14.20
2023-05-25T00:35:33.826Z,14.08
2023-05-25T00:38:00.984Z,13.96
2023-05-25T00:40:28.080Z,14.20
2023-05-25T00:42:56.361Z,14.32
2023-05-25T00:45:23.524Z,14.36
2023-05-25T00:47:54.515Z,14.18
2023-05-25T00:50:31.905Z,14.22
2023-05-25T00:52:59.170Z,14.28
2023-05-25T00:55:33.696Z,14.22
2023-05-25T00:58:02.756Z,14.27
2023-05-25T01:00:32.789Z,14.50
2023-05-25T01:03:01.256Z,14.75
2023-05-25T01:05:30.692Z,14.65
2023-05-25T01:08:02.022Z,14.79
2023-05-25T01:10:33.373Z,13.96
2023-05-25T01:13:02.948Z,13.58
2023-05-25T01:15:32.952Z,13.63
2023-05-25T01:18:00.118Z,13.93
2023-05-25T01:20:32.320Z,14.33
2023-05-25T01:23:05.237Z,14.37
2023-05-25T01:25:40.314Z,14.70
2023-05-25T01:28:11.676Z,14.80
2023-05-25T01:30:42.434Z,14.59
2023-05-25T01:33:11.065Z,14.19
2023-05-25T01:35:39.523Z,14.20
2023-05-25T01:38:07.169Z,14.24
2023-05-25T01:40:34.384Z,14.37
2023-05-25T01:43:01.648Z,14.51
2023-05-25T01:45:30.213Z,14.70
2023-05-25T01:48:20.531Z,14.77
2023-05-25T01:51:05.154Z,14.79
2023-05-25T01:53:40.636Z,14.83
2023-05-25T01:56:09.709Z,14.88
2023-05-25T01:58:41.051Z,14.45
2023-05-25T02:01:10.249Z,14.63
2023-05-25T02:03:38.925Z,14.63
2023-05-25T02:06:06.194Z,14.47
2023-05-25T02:08:35.275Z,14.66
2023-05-25T02:11:02.307Z,14.64
2023-05-25T02:13:29.477Z,14.37
2023-05-25T02:15:56.752Z,14.54
2023-05-25T02:18:23.999Z,14.57
2023-05-25T02:20:54.368Z,14.81
2023-05-25T02:23:21.801Z,14.91
2023-05-25T02:25:48.969Z,15.11
2023-05-25T02:28:16.563Z,14.67
2023-05-25T02:30:43.784Z,14.10
2023-05-25T02:33:10.892Z,13.77
2023-05-25T02:35:38.598Z,13.90
2023-05-25T02:38:05.765Z,14.08
2023-05-25T02:40:32.753Z,14.26
2023-05-25T02:42:59.791Z,14.22
2023-05-25T02:45:26.822Z,13.98
2023-05-25T02:47:53.846Z,13.90
2023-05-25T02:50:23.107Z,13.96
2023-05-25T02:52:53.390Z,14.00
2023-05-25T02:55:20.477Z,14.25
2023-05-25T02:57:47.731Z,14.26
2023-05-25T03:00:29.842Z,14.61
2023-05-25T03:02:57.713Z,14.68
2023-05-25T03:05:24.729Z,14.61
2023-05-25T03:07:52.581Z,14.82
2023-05-25T03:10:19.739Z,14.61
2023-05-25T03:12:46.796Z,14.61
2023-05-25T03:15:14.166Z,14.85
2023-05-25T03:17:41.541Z,15.28
2023-05-25T03:20:10.644Z,15.23
2023-05-25T03:22:41.945Z,15.33
2023-05-25T03:25:12.585Z,15.32
2023-05-25T03:27:40.082Z,15.06
2023-05-25T03:30:09.225Z,15.24
2023-05-25T03:32:36.749Z,15.49
2023-05-25T03:35:05.564Z,15.67
2023-05-25T03:37:33.076Z,15.65
2023-05-25T03:40:00.242Z,15.55
2023-05-25T03:42:28.490Z,15.76
2023-05-25T03:44:55.558Z,15.74
2023-05-25T03:47:23.429Z,15.79
2023-05-25T03:49:50.466Z,15.75
2023-05-25T03:52:17.463Z,15.96
2023-05-25T03:54:44.480Z,16.24
2023-05-25T03:57:11.532Z,16.54
2023-05-25T03:59:38.505Z,16.73
2023-05-25T04:02:05.551Z,16.66
2023-05-25T04:04:32.740Z,16.49
2023-05-25T04:06:59.978Z,16.96
2023-05-25T04:09:27.049Z,17.20
2023-05-25T04:11:54.074Z,17.41
2023-05-25T04:14:21.753Z,17.14
2023-05-25T04:16:49.566Z,17.26
2023-05-25T04:19:17.141Z,17.66
2023-05-25T04:21:44.154Z,17.95
2023-05-25T04:24:12.097Z,18.14
2023-05-25T04:26:40.450Z,18.02
2023-05-25T04:29:10.180Z,17.99
2023-05-25T04:32:00.410Z,17.61
2023-05-25T04:34:36.386Z,18.23
2023-05-25T04:37:14.238Z,18.55
2023-05-25T04:39:41.404Z,18.47
2023-05-25T04:42:08.562Z,18.77
2023-05-25T04:44:36.216Z,18.42
2023-05-25T04:47:05.882Z,18.68
2023-05-25T04:49:34.189Z,18.61
2023-05-25T04:52:01.286Z,18.90
2023-05-25T04:54:30.588Z,19.47
2023-05-25T04:57:00.304Z,19.98
2023-05-25T04:59:27.447Z,20.05
2023-05-25T05:01:54.503Z,20.12
2023-05-25T05:04:21.591Z,20.00
2023-05-25T05:06:49.475Z,20.19
2023-05-25T05:09:22.913Z,20.41
2023-05-25T05:11:50.101Z,20.46
2023-05-25T05:14:18.855Z,20.40
2023-05-25T05:16:48.380Z,20.46
2023-05-25T05:19:15.911Z,20.06
2023-05-25T05:21:43.111Z,20.52
2023-05-25T05:24:10.304Z,20.26
2023-05-25T05:26:55.245Z,20.02
2023-05-25T05:29:28.376Z,19.84
2023-05-25T05:31:56.132Z,20.50
2023-05-25T05:34:23.528Z,20.77
2023-05-25T05:36:57.929Z,20.67
2023-05-25T05:39:27.614Z,20.88
2023-05-25T05:41:55.889Z,21.31
2023-05-25T05:44:26.001Z,21.59
2023-05-25T05:47:02.408Z,21.82
2023-05-25T05:49:31.474Z,21.59
2023-05-25T05:51:59.991Z,22.32
2023-05-25T05:54:28.133Z,22.66
2023-05-25T05:56:57.409Z,22.72
2023-05-25T05:59:24.630Z,22.44
2023-05-25T06:01:51.770Z,23.02
2023-05-25T06:04:19.635Z,23.76
2023-05-25T06:06:47.101Z,23.47
2023-05-25T06:09:14.568Z,23.68
2023-05-25T06:11:41.950Z,23.57
2023-05-25T06:14:09.857Z,23.73
2023-05-25T06:16:37.489Z,23.77
2023-05-25T06:19:04.635Z,23.83
2023-05-25T06:21:31.714Z,23.62
2023-05-25T06:23:58.806Z,23.22
2023-05-25T06:26:26.124Z,23.38
2023-05-25T06:28:53.393Z,23.64
2023-05-25T06:31:20.448Z,24.04
2023-05-25T06:33:47.492Z,24.48
2023-05-25T06:36:15.737Z,24.36
2023-05-25T06:38:44.098Z,24.19
2023-05-25T06:41:15.227Z,25.34
2023-05-25T06:43:43.410Z,25.64
2023-05-25T06:46:18.481Z,25.12
2023-05-25T06:48:46.318Z,25.62
2023-05-25T06:51:14.054Z,25.38
2023-05-25T06:53:41.130Z,25.69
2023-05-25T06:56:08.277Z,24.95
2023-05-25T06:58:35.349Z,25.65
2023-05-25T07:01:02.952Z,24.67
2023-05-25T07:03:30.408Z,24.52
2023-05-25T07:05:57.528Z,24.61
2023-05-25T07:08:24.581Z,24.73
2023-05-25T07:10:51.630Z,25.27
2023-05-25T07:13:18.677Z,25.65
2023-05-25T07:15:46.069Z,26.11
2023-05-25T07:18:13.410Z,25.32
2023-05-25T07:20:42.691Z,25.21
2023-05-25T07:23:10.960Z,24.90
2023-05-25T07:25:41.734Z,25.15
2023-05-25T07:28:09.047Z,24.51
2023-05-25T07:30:36.282Z,24.34
2023-05-25T07:33:03.630Z,24.73
2023-05-25T07:35:30.754Z,25.65
2023-05-25T07:38:02.768Z,25.84
2023-05-25T07:40:30.290Z,25.80
2023-05-25T07:42:57.419Z,25.74
2023-05-25T07:45:24.617Z,25.86
2023-05-25T07:47:51.836Z,26.88
2023-05-25T07:50:19.143Z,26.75
2023-05-25T07:52:46.623Z,27.28
2023-05-25T07:55:14.051Z,26.58
2023-05-25T07:57:41.157Z,24.94
2023-05-25T08:00:09.451Z,24.50
2023-05-25T08:02:42.679Z,23.78
2023-05-25T08:05:10.298Z,23.17
2023-05-25T08:07:39.459Z,23.10
2023-05-25T08:10:08.835Z,23.16
2023-05-25T08:12:47.687Z,23.22
2023-05-25T08:15:16.127Z,23.55
2023-05-25T08:17:43.132Z,23.64
2023-05-25T08:20:10.826Z,23.65
2023-05-25T08:22:38.149Z,23.87
2023-05-25T08:25:05.602Z,23.79
2023-05-25T08:27:35.440Z,24.13
2023-05-25T08:30:06.021Z,24.50
2023-05-25T08:32:33.520Z,24.71
2023-05-25T08:35:02.036Z,24.07
2023-05-25T08:37:29.582Z,23.75
2023-05-25T08:39:56.628Z,23.63
2023-05-25T08:42:24.165Z,23.37
2023-05-25T08:44:51.300Z,23.37
2023-05-25T08:47:22.772Z,23.30
2023-05-25T08:49:51.050Z,23.36
2023-05-25T08:52:26.643Z,22.95
2023-05-25T08:54:57.831Z,23.09
2023-05-25T08:57:37.371Z,23.28
2023-05-25T09:00:13.362Z,22.96
2023-05-25T09:02:51.749Z,22.14
2023-05-25T09:05:19.461Z,22.08
2023-05-25T09:07:47.555Z,22.28
2023-05-25T09:10:15.360Z,22.91
2023-05-25T09:12:43.886Z,23.19
2023-05-25T09:15:12.347Z,23.71
2023-05-25T09:17:41.405Z,24.70
2023-05-25T09:20:14.064Z,24.95
2023-05-25T09:22:44.418Z,24.78
2023-05-25T09:25:13.647Z,24.60
2023-05-25T09:27:42.365Z,25.18
2023-05-25T09:30:09.729Z,24.47
2023-05-25T09:32:36.818Z,23.63
2023-05-25T09:35:11.939Z,23.07
2023-05-25T09:37:40.555Z,22.42
2023-05-25T09:40:09.378Z,21.69
2023-05-25T09:42:37.575Z,21.24
2023-05-25T09:45:05.865Z,21.00
2023-05-25T09:47:33.185Z,20.99
2023-05-25T09:50:00.506Z,21.01
2023-05-25T09:52:27.776Z,20.85
2023-05-25T09:54:56.338Z,21.09
2023-05-25T09:57:23.417Z,21.51
2023-05-25T09:59:50.489Z,21.92
2023-05-25T10:02:17.525Z,22.09
2023-05-25T10:04:44.693Z,22.56
2023-05-25T10:07:13.662Z,23.03
2023-05-25T10:09:43.453Z,23.69
2023-05-25T10:12:12.033Z,23.53
2023-05-25T10:14:40.465Z,23.64
2023-05-25T10:17:11.741Z,24.21
2023-05-25T10:19:43.030Z,24.24
2023-05-25T10:22:51.629Z,24.54
2023-05-25T10:25:40.130Z,25.30
2023-05-25T10:28:31.339Z,25.98
2023-05-25T10:31:00.335Z,26.33
2023-05-25T10:38:37.746Z,24.75
2023-05-25T10:41:06.034Z,24.54
2023-05-25T10:43:33.641Z,23.93
2023-05-25T10:46:01.303Z,23.18
2023-05-25T10:48:46.509Z,23.73
2023-05-25T10:51:14.419Z,23.96
2023-05-25T10:53:46.072Z,23.74
2023-05-25T10:56:14.387Z,23.40
2023-05-25T10:58:44.178Z,23.54
2023-05-25T11:01:13.189Z,23.89
2023-05-25T11:03:55.099Z,24.21
2023-05-25T11:06:24.312Z,24.38
2023-05-25T11:08:59.364Z,25.22
2023-05-25T11:11:47.130Z,25.44
2023-05-25T11:14:24.352Z,25.34
2023-05-25T11:17:18.425Z,24.92
2023-05-25T11:19:54.881Z,25.34
2023-05-25T11:22:33.477Z,25.94
2023-05-25T11:25:03.069Z,26.09
2023-05-25T11:27:32.276Z,26.15
2023-05-25T11:30:00.536Z,25.86
2023-05-25T11:32:28.556Z,25.47
2023-05-25T11:34:58.649Z,25.34
2023-05-25T11:37:31.454Z,24.94
2023-05-25T11:39:58.994Z,24.75
2023-05-25T11:42:26.568Z,24.40
2023-05-25T11:44:53.835Z,23.69
2023-05-25T11:47:25.204Z,23.82
2023-05-25T11:49:55.762Z,23.49
2023-05-25T11:52:23.650Z,23.18
2023-05-25T11:54:51.137Z,23.06
2023-05-25T11:57:26.293Z,23.05
2023-05-25T12:00:00.416Z,23.25
2023-05-25T12:02:27.733Z,23.58
2023-05-25T12:04:55.415Z,22.84
2023-05-25T12:07:23.777Z,23.18
2023-05-25T12:09:50.856Z,24.23
2023-05-25T12:12:18.064Z,24.31
2023-05-25T12:14:49.635Z,24.00
2023-05-25T12:17:18.576Z,23.75
2023-05-25T12:19:46.042Z,24.48
2023-05-25T12:22:14.025Z,25.24
2023-05-25T12:24:41.573Z,25.66
2023-05-25T12:27:19.484Z,25.51
2023-05-25T12:29:47.887Z,25.18
2023-05-25T12:32:15.440Z,25.70
2023-05-25T12:34:43.855Z,25.49
2023-05-25T12:37:21.991Z,25.29
2023-05-25T12:39:49.260Z,25.47
2023-05-25T12:42:17.305Z,25.41
2023-05-25T12:44:46.807Z,25.12
2023-05-25T12:47:28.272Z,24.40
2023-05-25T12:50:15.582Z,23.67
2023-05-25T12:52:44.408Z,23.52
2023-05-25T12:55:41.689Z,23.43
2023-05-25T12:58:08.744Z,23.40
2023-05-25T13:00:37.974Z,23.06
2023-05-25T13:03:09.456Z,22.58
2023-05-25T13:05:38.294Z,22.37
2023-05-25T13:08:06.444Z,22.16
2023-05-25T13:10:34.285Z,22.44
2023-05-25T13:13:01.482Z,22.45
2023-05-25T13:15:29.029Z,22.34
2023-05-25T13:17:58.770Z,21.98
2023-05-25T13:20:27.311Z,21.66
2023-05-25T13:22:58.643Z,21.81
2023-05-25T13:25:28.083Z,21.48
2023-05-25T13:27:58.282Z,21.45
2023-05-25T13:30:26.564Z,21.53
2023-05-25T13:32:53.986Z,20.94
2023-05-25T13:35:41.823Z,20.81
2023-05-25T13:38:10.727Z,20.89
2023-05-25T13:40:37.784Z,20.69
2023-05-25T13:43:05.013Z,20.56
2023-05-25T13:45:32.075Z,20.63
2023-05-25T13:47:59.360Z,20.45
2023-05-25T13:50:26.601Z,20.53
2023-05-25T13:52:54.290Z,20.68
2023-05-25T13:55:21.412Z,21.20
2023-05-25T13:57:48.610Z,21.12
2023-05-25T14:00:15.862Z,20.68
2023-05-25T14:02:43.239Z,20.74
2023-05-25T14:05:10.926Z,20.72
2023-05-25T14:07:39.931Z,21.06
2023-05-25T14:10:08.302Z,21.26
2023-05-25T14:12:36.792Z,21.22
2023-05-25T14:15:04.348Z,20.91
2023-05-25T14:17:31.426Z,21.38
2023-05-25T14:19:59.211Z,22.23
2023-05-25T14:22:28.094Z,22.77
2023-05-25T14:24:55.228Z,22.94
2023-05-25T14:27:22.436Z,23.02
2023-05-25T14:29:52.354Z,23.12
2023-05-25T14:32:19.579Z,22.68
2023-05-25T14:34:46.668Z,22.46
2023-05-25T14:37:13.695Z,22.50
2023-05-25T14:39:40.654Z,22.78
2023-05-25T14:42:07.947Z,23.09
2023-05-25T14:44:34.957Z,23.59
2023-05-25T14:47:02.003Z,23.60
2023-05-25T14:49:28.995Z,23.28
2023-05-25T14:51:56.054Z,23.20
2023-05-25T14:54:23.086Z,22.98
2023-05-25T14:56:50.165Z,23.24
2023-05-25T14:59:17.325Z,23.94
2023-05-25T15:01:46.631Z,24.19
2023-05-25T15:04:14.300Z,23.59
2023-05-25T15:06:41.744Z,23.43
2023-05-25T15:09:08.741Z,23.75
2023-05-25T15:11:35.824Z,24.19
2023-05-25T15:14:02.875Z,23.82
2023-05-25T15:16:29.981Z,24.16
2023-05-25T15:18:57.046Z,23.99
2023-05-25T15:21:25.638Z,24.05
2023-05-25T15:23:52.852Z,23.34
2023-05-25T15:26:19.891Z,22.91
2023-05-25T15:28:46.943Z,23.11
2023-05-25T15:31:13.953Z,23.53
2023-05-25T15:33:51.407Z,23.55
2023-05-25T15:36:23.677Z,23.31
2023-05-25T15:38:50.795Z,23.19
2023-05-25T15:41:17.917Z,23.42
2023-05-25T15:43:54.791Z,23.46
2023-05-25T15:46:21.925Z,23.06
2023-05-25T15:48:49.021Z,23.52
2023-05-25T15:51:16.141Z,23.64
2023-05-25T15:53:43.125Z,23.97
2023-05-25T15:56:10.556Z,24.17
2023-05-25T15:58:37.609Z,24.26
2023-05-25T16:01:05.583Z,23.91
2023-05-25T16:03:32.737Z,23.71
2023-05-25T16:05:59.956Z,23.55
2023-05-25T16:08:26.977Z,23.37
2023-05-25T16:10:54.004Z,23.30
2023-05-25T16:13:21.102Z,23.22
2023-05-25T16:15:48.306Z,22.98
2023-05-25T16:18:16.779Z,23.16
2023-05-25T16:20:44.177Z,23.07
2023-05-25T16:23:11.517Z,23.33
2023-05-25T16:25:38.512Z,23.27
2023-05-25T16:28:05.593Z,23.20
2023-05-25T16:30:32.642Z,23.19
2023-05-25T16:32:59.711Z,23.26
2023-05-25T16:35:26.813Z,23.66
2023-05-25T16:37:53.813Z,23.92
2023-05-25T16:40:21.027Z,23.88
2023-05-25T16:42:48.145Z,23.86
2023-05-25T16:45:15.472Z,23.64
2023-05-25T16:47:42.520Z,23.27
2023-05-25T16:50:09.809Z,23.26
2023-05-25T16:52:36.818Z,23.28
2023-05-25T16:55:04.119Z,23.19
2023-05-25T16:57:31.180Z,22.88
2023-05-25T16:59:58.181Z,22.61
2023-05-25T17:02:25.289Z,22.50
2023-05-25T17:04:52.514Z,22.65
2023-05-25T17:07:19.589Z,22.64
2023-05-25T17:09:46.710Z,22.64
2023-05-25T17:12:13.703Z,22.54
2023-05-25T17:14:40.746Z,22.24
2023-05-25T17:17:07.764Z,21.73
2023-05-25T17:19:34.938Z,21.84
2023-05-25T17:22:01.974Z,21.55
2023-05-25T17:24:29.030Z,21.23
2023-05-25T17:26:56.296Z,21.09
2023-05-25T17:29:23.356Z,21.02
2023-05-25T17:31:50.595Z,20.91
2023-05-25T17:34:17.730Z,20.82
2023-05-25T17:36:44.802Z,20.77
2023-05-25T17:39:11.897Z,20.60
2023-05-25T17:41:39.002Z,20.56
2023-05-25T17:44:06.156Z,20.75
2023-05-25T17:46:33.384Z,20.80
2023-05-25T17:49:00.573Z,20.91
2023-05-25T17:51:27.558Z,20.85
2023-05-25T17:53:54.592Z,20.81
2023-05-25T17:56:22.377Z,20.84
2023-05-25T17:58:49.503Z,20.29
2023-05-25T18:01:16.879Z,19.85
2023-05-25T18:03:44.100Z,19.52
2023-05-25T18:06:11.274Z,18.95
2023-05-25T18:08:38.247Z,18.77
2023-05-25T18:11:05.840Z,18.88
2023-05-25T18:13:32.982Z,19.13
2023-05-25T18:16:00.165Z,19.05
2023-05-25T18:18:28.859Z,19.18
2023-05-25T18:20:55.925Z,19.02
2023-05-25T18:23:22.911Z,19.27
2023-05-25T18:25:50.036Z,19.38
2023-05-25T18:28:17.062Z,19.04
2023-05-25T18:30:44.404Z,18.95
2023-05-25T18:33:11.517Z,18.74
2023-05-25T18:35:38.746Z,18.97
2023-05-25T18:38:06.882Z,19.29
2023-05-25T18:40:34.054Z,19.19
2023-05-25T18:43:01.211Z,18.70
2023-05-25T18:45:28.310Z,18.67
2023-05-25T18:47:55.560Z,18.43
2023-05-25T18:50:22.634Z,18.43
2023-05-25T18:52:51.499Z,18.26
2023-05-25T18:55:19.295Z,18.40
2023-05-25T18:57:46.960Z,18.63
2023-05-25T19:00:14.649Z,18.90
2023-05-25T19:02:41.768Z,19.23
2023-05-25T19:05:11.886Z,19.14
2023-05-25T19:07:58.375Z,18.89
2023-05-25T19:10:27.039Z,18.47
2023-05-25T19:12:54.178Z,18.45
2023-05-25T19:15:21.337Z,18.61
2023-05-25T19:17:48.377Z,18.73
2023-05-25T19:20:16.101Z,18.45
2023-05-25T19:22:43.556Z,18.48
2023-05-25T19:25:10.648Z,18.64
2023-05-25T19:27:37.740Z,18.93
2023-05-25T19:30:05.182Z,19.11
2023-05-25T19:32:32.384Z,19.32
2023-05-25T19:34:59.399Z,19.23
2023-05-25T19:37:26.679Z,19.40
2023-05-25T19:39:53.718Z,19.11
2023-05-25T19:42:21.022Z,18.76
2023-05-25T19:44:48.149Z,18.68
2023-05-25T19:47:15.270Z,18.64
2023-05-25T19:49:42.943Z,18.53
2023-05-25T19:52:10.005Z,18.66
2023-05-25T19:54:37.004Z,18.79
2023-05-25T19:57:04.063Z,18.63
2023-05-25T19:59:31.568Z,18.26
2023-05-25T20:01:58.866Z,18.42
2023-05-25T20:04:26.173Z,18.39
2023-05-25T20:06:54.005Z,18.62
2023-05-25T20:09:29.896Z,18.56
2023-05-25T20:11:58.361Z,18.82
2023-05-25T20:14:25.563Z,18.86
2023-05-25T20:16:55.377Z,18.68
2023-05-25T20:19:23.498Z,18.45
2023-05-25T20:21:50.971Z,18.59
2023-05-25T20:24:18.378Z,19.02
2023-05-25T20:26:45.441Z,18.88
2023-05-25T20:29:12.557Z,18.47
2023-05-25T20:31:40.558Z,18.67
2023-05-25T20:34:07.813Z,18.75
2023-05-25T20:36:34.825Z,18.38
2023-05-25T20:39:03.249Z,18.54
2023-05-25T20:41:30.505Z,18.65
2023-05-25T20:43:57.965Z,18.51
2023-05-25T20:46:25.207Z,18.57
2023-05-25T20:48:53.576Z,18.37
2023-05-25T20:51:21.990Z,18.30
2023-05-25T20:53:49.062Z,18.72
2023-05-25T20:56:16.243Z,18.84
2023-05-25T20:58:43.343Z,18.83
2023-05-25T21:01:10.448Z,18.31
2023-05-25T21:03:37.599Z,18.64
2023-05-25T21:06:04.843Z,18.61
2023-05-25T21:08:32.814Z,18.85
2023-05-25T21:10:59.839Z,18.88
2023-05-25T21:13:26.878Z,18.74
2023-05-25T21:15:53.980Z,18.87
2023-05-25T21:18:21.031Z,18.83
2023-05-25T21:20:48.020Z,18.79
2023-05-25T21:23:15.067Z,18.67
2023-05-25T21:25:42.069Z,18.64
2023-05-25T21:28:10.567Z,18.62
2023-05-25T21:30:37.606Z,18.82
2023-05-25T21:33:04.684Z,18.36
2023-05-25T21:35:31.788Z,18.56
2023-05-25T21:37:58.814Z,18.48
2023-05-25T21:40:25.887Z,18.79
2023-05-25T21:42:56.090Z,18.49
2023-05-25T21:45:23.174Z,18.21
2023-05-25T21:47:50.250Z,18.42
2023-05-25T21:50:17.421Z,18.35
2023-05-25T21:52:44.393Z,18.45
2023-05-25T21:55:11.354Z,18.50
2023-05-25T21:57:38.369Z,18.12
2023-05-25T22:00:06.690Z,17.70
2023-05-25T22:02:39.744Z,17.87
2023-05-25T22:05:07.308Z,18.06
2023-05-25T22:07:34.337Z,17.93
2023-05-25T22:10:01.397Z,17.96
2023-05-25T22:12:28.423Z,18.10
2023-05-25T22:14:55.441Z,17.73
2023-05-25T22:17:22.608Z,17.90
2023-05-25T22:20:03.319Z,18.33
2023-05-25T22:22:34.771Z,18.04
2023-05-25T22:25:01.897Z,18.25
2023-05-25T22:27:28.931Z,18.17
2023-05-25T22:29:56.124Z,18.13
2023-05-25T22:32:23.458Z,17.94
2023-05-25T22:34:50.633Z,17.82
2023-05-25T22:37:17.777Z,17.95
2023-05-25T22:39:45.089Z,18.35
2023-05-25T22:42:12.294Z,18.22
2023-05-25T22:44:39.388Z,18.32
2023-05-25T22:47:07.067Z,18.13
2023-05-25T22:49:41.218Z,18.14
2023-05-25T22:52:11.409Z,18.30
2023-05-25T22:54:38.510Z,17.82
2023-05-25T22:57:06.552Z,18.18
2023-05-25T22:59:33.603Z,18.28
2023-05-25T23:02:01.108Z,18.29
2023-05-25T23:04:28.186Z,18.26
2023-05-25T23:06:55.271Z,18.31
2023-05-25T23:09:22.299Z,18.26
2023-05-25T23:11:49.338Z,18.24
2023-05-25T23:14:16.314Z,18.25
2023-05-25T23:16:44.578Z,17.69
2023-05-25T23:19:11.725Z,17.42
2023-05-25T23:21:38.753Z,17.19
2023-05-25T23:24:06.270Z,16.96
2023-05-25T23:26:33.276Z,17.05
2023-05-25T23:29:00.353Z,17.56
2023-05-25T23:31:27.419Z,17.79
2023-05-25T23:33:54.474Z,18.03
2023-05-25T23:36:21.536Z,18.16
2023-05-25T23:38:48.521Z,18.25
2023-05-25T23:41:16.623Z,18.41
2023-05-25T23:43:43.807Z,18.38
2023-05-25T23:46:10.876Z,18.30
2023-05-25T23:48:37.865Z,18.21
2023-05-25T23:51:07.562Z,18.24
2023-05-25T23:53:34.646Z,18.02
2023-05-25T23:56:01.657Z,18.13
2023-05-25T23:58:28.809Z,17.83
